Time;durP1;ratioP1;P1;durP2;ratioP2;P2;SDS_P1;SDS_P2;PMS_P1;PMS_P2;Temp;Humidity;BMP_temperature;BMP_pressure;BME280_temperature;BME280_humidity;BME280_pressure;Samples;Min_cycle;Max_cycle;Signal;HPM_P1;HPM_P2
2021/03/07 00:02:42;;;;;;;3.15;2.90;;;-4.20;91.40;-5.60;97823.00;;;;5088036;28;20252;-67
2021/03/07 00:05:30;;;;;;;4.05;2.92;;;-4.10;91.30;-5.60;97808.00;;;;5087582;28;20260;-67
2021/03/07 00:08:18;;;;;;;2.85;2.40;;;-4.10;91.20;-5.60;97807.00;;;;5077505;28;20207;-67
2021/03/07 00:11:06;;;;;;;3.30;2.88;;;-4.10;91.30;-5.90;97807.00;;;;5076561;28;20199;-67
2021/03/07 00:13:55;;;;;;;3.55;2.30;;;-4.10;91.50;-6.10;97809.00;;;;5087549;28;20703;-67
2021/03/07 00:16:43;;;;;;;4.05;3.05;;;-4.20;92.40;-5.90;97800.00;;;;5084467;28;20241;-67
2021/03/07 00:19:30;;;;;;;3.33;2.63;;;-4.30;92.70;-5.70;97799.00;;;;5073571;28;20212;-67
2021/03/07 00:22:19;;;;;;;3.05;2.70;;;-4.20;92.40;-5.60;97802.00;;;;5076265;28;20323;-67
2021/03/07 00:25:10;;;;;;;3.30;3.00;;;-4.20;92.00;-5.90;97797.00;;;;5086687;28;20209;-67
2021/03/07 00:27:58;;;;;;;4.63;2.80;;;-4.10;92.40;-6.30;97795.00;;;;5081018;28;20950;-67
2021/03/07 00:30:46;;;;;;;4.18;2.78;;;-4.30;93.20;-6.60;97783.00;;;;5086195;28;20220;-66
2021/03/07 00:33:34;;;;;;;5.32;3.00;;;-4.50;94.40;-6.40;97793.00;;;;5074239;28;20628;-66
2021/03/07 00:36:22;;;;;;;3.00;2.67;;;-4.60;95.30;-6.20;97792.00;;;;5084240;28;20219;-67
2021/03/07 00:39:10;;;;;;;2.78;2.55;;;-4.60;95.30;-6.10;97777.00;;;;5071964;28;20215;-67
2021/03/07 00:42:01;;;;;;;3.33;2.72;;;-4.50;95.20;-6.40;97780.00;;;;5086357;28;20218;-69
2021/03/07 00:44:48;;;;;;;3.53;2.58;;;-4.60;95.50;-6.50;97768.00;;;;5087129;28;20207;-67
2021/03/07 00:47:37;;;;;;;3.70;2.05;;;-4.60;96.10;-6.40;97778.00;;;;5085810;28;20702;-66
2021/03/07 00:50:27;;;;;;;4.32;3.25;;;-4.70;96.40;-6.30;97765.00;;;;5085913;28;20233;-68
2021/03/07 00:53:14;;;;;;;3.05;2.85;;;-4.70;96.90;-6.40;97769.00;;;;5086199;28;20225;-66
2021/03/07 00:56:02;;;;;;;3.10;2.53;;;-4.70;97.80;-6.60;97757.00;;;;5085269;28;20234;-68
2021/03/07 01:02:15;;;;;;;3.80;2.67;;;-4.80;98.00;-6.50;97747.00;;;;5085537;28;20198;-68
2021/03/07 01:05:05;;;;;;;3.40;2.67;;;-4.70;98.50;-6.50;97732.00;;;;5086812;28;20203;-68
2021/03/07 01:07:53;;;;;;;4.18;2.35;;;-4.80;98.90;-6.50;97736.00;;;;5086871;28;20235;-67
2021/03/07 01:10:44;;;;;;;5.55;2.88;;;-4.80;99.10;-6.60;97734.00;;;;5085085;28;20231;-69
2021/03/07 01:13:32;;;;;;;1.85;1.70;;;-4.80;99.40;-6.60;97732.00;;;;5087454;28;20214;-67
2021/03/07 01:16:20;;;;;;;2.30;2.05;;;-4.90;99.90;-6.60;97726.00;;;;5083792;28;20737;-68
2021/03/07 01:19:08;;;;;;;2.85;2.20;;;-4.70;99.90;-6.60;97726.00;;;;5071372;28;20234;-68
2021/03/07 01:21:57;;;;;;;3.55;1.88;;;-4.90;99.90;-6.60;97721.00;;;;5085469;28;20222;-68
2021/03/07 01:24:45;;;;;;;5.47;3.38;;;-4.90;99.90;-6.80;97718.00;;;;5086247;28;20219;-68
2021/03/07 01:27:32;;;;;;;1.80;1.70;;;-4.90;99.90;-6.70;97714.00;;;;5085953;28;20318;-67
2021/03/07 01:30:23;;;;;;;3.58;3.25;;;-5.00;99.90;-6.70;97702.00;;;;5084829;28;20231;-67
2021/03/07 01:33:11;;;;;;;5.43;2.58;;;-5.00;99.90;-7.10;97711.00;;;;5085701;28;20415;-67
2021/03/07 01:36:02;;;;;;;2.95;2.75;;;-5.00;99.90;-7.00;97700.00;;;;5084747;28;20728;-67
2021/03/07 01:38:51;;;;;;;2.78;2.38;;;-5.20;99.90;-6.80;97695.00;;;;5077489;28;20200;-68
2021/03/07 01:41:39;;;;;;;3.78;2.88;;;-5.20;99.90;-6.70;97695.00;;;;5070806;28;20210;-68
2021/03/07 01:44:27;;;;;;;2.25;2.05;;;-5.10;99.90;-6.70;97699.00;;;;5078961;28;20206;-68
2021/03/07 01:47:26;;;;;;;2.15;2.05;;;-5.10;99.90;-6.80;97679.00;;;;5085301;28;20243;-67
2021/03/07 01:50:17;;;;;;;4.57;3.22;;;-5.00;99.90;-6.90;97669.00;;;;5084771;28;20276;-67
2021/03/07 01:53:06;;;;;;;3.50;2.55;;;-5.10;99.90;-7.00;97676.00;;;;5077053;28;20804;-66
2021/03/07 01:55:57;;;;;;;2.88;2.22;;;-5.20;99.90;-7.20;97675.00;;;;5083563;28;20230;-68
2021/03/07 01:58:47;;;;;;;3.53;2.65;;;-5.20;99.90;-7.20;97670.00;;;;5085183;28;20213;-67
2021/03/07 02:01:35;;;;;;;2.22;1.98;;;-5.30;99.90;-7.00;97664.00;;;;5086510;28;20571;-68
2021/03/07 02:04:23;;;;;;;2.40;2.28;;;-5.10;99.90;-6.90;97665.00;;;;5073101;28;20210;-68
2021/03/07 02:07:11;;;;;;;2.42;2.20;;;-5.30;99.90;-7.00;97669.00;;;;5084847;28;20219;-68
2021/03/07 02:09:59;;;;;;;2.78;2.58;;;-5.30;99.90;-7.00;97651.00;;;;5084159;28;20622;-66
2021/03/07 02:12:58;;;;;;;2.10;1.90;;;-5.30;99.90;-7.00;97655.00;;;;5079049;28;20237;-66
2021/03/07 02:15:54;;;;;;;1.70;1.60;;;-5.30;99.90;-7.20;97650.00;;;;5072636;28;20191;-68
2021/03/07 02:18:46;;;;;;;2.15;2.03;;;-5.30;99.90;-7.40;97640.00;;;;5076103;28;20219;-67
2021/03/07 02:21:42;;;;;;;2.50;2.30;;;-5.40;99.90;-7.30;97643.00;;;;5071756;28;20207;-67
2021/03/07 02:24:33;;;;;;;3.25;2.63;;;-5.50;99.90;-7.20;97630.00;;;;5078824;28;20203;-67
2021/03/07 02:27:21;;;;;;;2.85;2.63;;;-5.50;99.90;-7.30;97639.00;;;;5080726;28;20227;-67
2021/03/07 02:30:13;;;;;;;2.80;2.15;;;-5.50;99.90;-7.10;97628.00;;;;5072277;28;20230;-67
2021/03/07 02:33:10;;;;;;;3.10;2.80;;;-5.50;99.90;-7.00;97623.00;;;;5084340;28;20203;-67
2021/03/07 02:36:05;;;;;;;3.00;2.45;;;-5.40;99.90;-6.90;97614.00;;;;5084481;28;20257;-67
2021/03/07 02:38:54;;;;;;;2.47;2.03;;;-5.40;99.90;-6.90;97622.00;;;;5075632;28;20214;-67
2021/03/07 02:41:44;;;;;;;2.50;2.30;;;-5.30;99.90;-7.10;97603.00;;;;5074998;28;20212;-66
2021/03/07 02:44:36;;;;;;;2.65;2.35;;;-5.30;99.90;-7.30;97602.00;;;;5084510;28;20850;-67
2021/03/07 02:47:26;;;;;;;6.20;1.90;;;-5.40;99.90;-7.40;97608.00;;;;5084184;28;20221;-67
2021/03/07 02:50:18;;;;;;;2.10;1.52;;;-5.50;99.90;-7.60;97605.00;;;;5085538;28;20237;-68
2021/03/07 02:53:11;;;;;;;2.45;2.25;;;-5.60;99.90;-7.70;97589.00;;;;5084925;28;20200;-68
2021/03/07 02:56:03;;;;;;;1.95;1.83;;;-5.70;99.90;-7.60;97581.00;;;;5084902;28;20215;-68
2021/03/07 02:58:59;;;;;;;2.63;2.42;;;-5.80;99.90;-7.60;97582.00;;;;5087444;28;20199;-68
2021/03/07 03:01:53;;;;;;;2.72;2.20;;;-5.80;99.90;-7.60;97578.00;;;;5082188;28;20579;-68
2021/03/07 03:04:44;;;;;;;2.83;1.98;;;-5.80;99.90;-7.60;97582.00;;;;5089207;28;20192;-69
2021/03/07 03:07:34;;;;;;;2.15;1.95;;;-5.80;99.90;-7.70;97584.00;;;;5083708;28;20936;-68
2021/03/07 03:10:22;;;;;;;2.55;2.35;;;-5.90;99.90;-7.90;97564.00;;;;5072463;28;20614;-68
2021/03/07 03:13:11;;;;;;;2.40;2.20;;;-6.00;99.90;-7.70;97561.00;;;;5088316;28;20210;-67
2021/03/07 03:16:02;;;;;;;2.55;2.42;;;-6.00;99.90;-7.50;97567.00;;;;5086526;28;20336;-68
2021/03/07 03:18:51;;;;;;;5.10;2.08;;;-6.00;99.90;-7.30;97569.00;;;;5081418;28;20253;-68
2021/03/07 03:21:39;;;;;;;1.85;1.75;;;-5.90;99.90;-7.40;97551.00;;;;5085629;28;20206;-68
2021/03/07 03:24:27;;;;;;;2.67;2.42;;;-5.80;99.90;-7.70;97554.00;;;;5088171;28;20203;-68
2021/03/07 03:27:16;;;;;;;3.33;2.42;;;-5.80;99.90;-8.00;97552.00;;;;5088297;28;20627;-68
2021/03/07 03:30:09;;;;;;;3.00;2.50;;;-5.90;99.90;-8.00;97556.00;;;;5087204;28;20599;-67
2021/03/07 03:32:57;;;;;;;3.70;2.33;;;-6.00;99.90;-7.90;97550.00;;;;5087866;28;20199;-68
2021/03/07 03:35:45;;;;;;;4.13;3.17;;;-6.00;99.90;-7.90;97541.00;;;;5088175;28;20203;-68
2021/03/07 03:38:40;;;;;;;3.05;2.75;;;-6.10;99.90;-7.90;97550.00;;;;5082290;28;20203;-67
2021/03/07 03:41:34;;;;;;;2.40;2.13;;;-6.10;99.90;-8.10;97544.00;;;;5071875;28;20203;-67
2021/03/07 03:44:24;;;;;;;3.33;2.42;;;-6.20;99.90;-7.90;97549.00;;;;5079865;28;20207;-67
2021/03/07 03:47:14;;;;;;;5.38;2.85;;;-6.20;99.90;-7.90;97535.00;;;;5087109;28;20233;-68
2021/03/07 03:50:06;;;;;;;7.50;3.75;;;-6.20;99.90;-7.90;97539.00;;;;5084448;28;20694;-67
2021/03/07 03:52:54;;;;;;;2.47;2.28;;;-6.20;99.90;-8.10;97538.00;;;;5086565;28;20195;-68
2021/03/07 03:55:46;;;;;;;2.13;2.03;;;-6.20;99.90;-8.00;97547.00;;;;5087188;28;20705;-67
2021/03/07 03:58:42;;;;;;;3.58;3.28;;;-6.20;99.90;-8.00;97554.00;;;;5088037;28;20673;-68
2021/03/07 04:01:32;;;;;;;3.33;2.22;;;-6.20;99.90;-8.10;97534.00;;;;5086904;28;20207;-67
2021/03/07 04:04:21;;;;;;;2.78;2.58;;;-6.20;99.90;-8.00;97551.00;;;;5076274;28;20245;-68
2021/03/07 04:07:10;;;;;;;2.95;2.40;;;-6.20;99.90;-7.90;97541.00;;;;5082998;28;20219;-68
2021/03/07 04:10:00;;;;;;;2.55;2.35;;;-6.20;99.90;-7.80;97541.00;;;;5074246;28;20220;-67
2021/03/07 04:12:50;;;;;;;2.42;2.17;;;-6.10;99.90;-7.70;97539.00;;;;5089366;28;20199;-67
2021/03/07 04:15:39;;;;;;;2.40;2.20;;;-6.10;99.90;-7.80;97542.00;;;;5089588;28;20784;-67
2021/03/07 04:18:28;;;;;;;3.53;3.13;;;-6.10;99.90;-7.90;97543.00;;;;5083192;28;20598;-67
2021/03/07 04:21:18;;;;;;;2.35;2.15;;;-6.10;99.90;-8.10;97542.00;;;;5087843;28;20206;-67
2021/03/07 04:24:08;;;;;;;2.28;2.08;;;-6.10;99.90;-8.20;97542.00;;;;5087298;28;20704;-67
2021/03/07 04:26:57;;;;;;;1.58;1.52;;;-6.20;99.90;-8.10;97540.00;;;;5086974;28;20223;-68
2021/03/07 04:29:45;;;;;;;3.50;2.25;;;-6.30;99.90;-8.00;97535.00;;;;5086153;28;20227;-67
2021/03/07 04:32:34;;;;;;;3.80;3.17;;;-6.30;99.90;-8.20;97538.00;;;;5083222;28;20567;-67
2021/03/07 04:35:22;;;;;;;2.72;2.10;;;-6.30;99.90;-8.20;97532.00;;;;5084239;28;20639;-68
2021/03/07 04:38:11;;;;;;;4.28;3.17;;;-6.10;99.90;-8.30;97534.00;;;;5085277;28;20211;-68
2021/03/07 04:41:00;;;;;;;3.80;2.70;;;-6.40;99.90;-8.40;97529.00;;;;5081775;28;20221;-68
2021/03/07 04:43:51;;;;;;;2.13;2.00;;;-6.20;99.90;-8.20;97526.00;;;;5081925;28;20204;-68
2021/03/07 04:46:39;;;;;;;5.07;2.90;;;-6.50;99.90;-8.10;97515.00;;;;5079806;28;20227;-68
2021/03/07 04:49:27;;;;;;;3.58;2.13;;;-6.30;99.90;-8.30;97527.00;;;;5080943;28;20629;-68
2021/03/07 04:52:15;;;;;;;2.70;2.50;;;-6.40;99.90;-8.10;97515.00;;;;5081949;28;20211;-68
2021/03/07 04:55:05;;;;;;;4.38;2.05;;;-6.40;99.90;-8.00;97521.00;;;;5078067;28;20203;-68
2021/03/07 04:57:53;;;;;;;2.97;2.67;;;-6.40;99.90;-8.00;97513.00;;;;5074162;28;20215;-68
2021/03/07 05:00:41;;;;;;;2.80;2.60;;;-6.30;99.90;-7.90;97523.00;;;;5085022;28;20218;-68
2021/03/07 05:03:29;;;;;;;2.90;2.70;;;-6.10;99.90;-7.90;97523.00;;;;5080777;28;20204;-68
2021/03/07 05:06:17;;;;;;;3.63;2.88;;;-6.20;99.90;-7.70;97515.00;;;;5075679;28;20241;-68
2021/03/07 05:09:06;;;;;;;2.80;2.55;;;-6.10;99.90;-8.00;97501.00;;;;5073317;28;20191;-67
2021/03/07 05:11:54;;;;;;;2.38;2.17;;;-6.10;99.90;-8.20;97514.00;;;;5082342;28;20199;-67
2021/03/07 05:14:43;;;;;;;2.67;1.98;;;-6.20;99.90;-8.20;97520.00;;;;5074621;28;21057;-68
2021/03/07 05:17:31;;;;;;;3.88;2.55;;;-6.30;99.90;-8.20;97513.00;;;;5083048;28;20233;-67
2021/03/07 05:20:19;;;;;;;3.30;3.00;;;-6.30;99.90;-8.20;97512.00;;;;5085743;28;20203;-66
2021/03/07 05:23:07;;;;;;;2.25;2.03;;;-6.40;99.90;-8.20;97501.00;;;;5085657;28;20200;-66
2021/03/07 05:25:54;;;;;;;3.60;2.35;;;-6.40;99.90;-8.50;97502.00;;;;5087197;28;20223;-68
2021/03/07 05:28:43;;;;;;;2.50;2.30;;;-6.40;99.90;-8.30;97504.00;;;;5085221;28;20207;-68
2021/03/07 05:31:32;;;;;;;2.30;2.20;;;-6.50;99.90;-8.40;97504.00;;;;5079643;28;20272;-66
2021/03/07 05:34:20;;;;;;;3.55;3.08;;;-6.50;99.90;-8.40;97509.00;;;;5080738;28;20206;-68
2021/03/07 05:37:07;;;;;;;2.03;1.90;;;-5.50;99.90;-8.60;97499.00;;;;5077004;28;20219;-68
2021/03/07 05:39:55;;;;;;;1.50;1.50;;;-6.40;99.90;-8.50;97518.00;;;;5070137;28;20238;-67
2021/03/07 05:42:43;;;;;;;2.15;1.95;;;-6.60;99.90;-8.30;97513.00;;;;5070751;28;20589;-68
2021/03/07 05:45:42;;;;;;;2.67;2.47;;;-6.60;99.90;-8.20;97500.00;;;;5075091;28;20204;-67
2021/03/07 05:48:31;;;;;;;3.17;2.88;;;-6.50;99.90;-8.10;97502.00;;;;5070859;28;20208;-67
2021/03/07 05:51:19;;;;;;;3.00;2.70;;;-6.50;99.90;-8.00;97519.00;;;;5073087;28;20234;-67
2021/03/07 05:54:07;;;;;;;2.47;2.28;;;-6.40;99.90;-8.20;97510.00;;;;5085374;28;20199;-67
2021/03/07 05:56:55;;;;;;;3.53;2.90;;;-6.40;99.90;-8.10;97510.00;;;;5082954;28;20239;-67
2021/03/07 05:59:44;;;;;;;4.45;2.75;;;-6.40;99.90;-8.20;97501.00;;;;5083316;28;20203;-67
2021/03/07 06:02:32;;;;;;;3.83;2.15;;;-6.40;99.90;-8.10;97512.00;;;;5085562;28;20206;-67
2021/03/07 06:05:21;;;;;;;2.08;1.90;;;-6.40;99.90;-8.10;97501.00;;;;5085389;28;20754;-67
2021/03/07 06:08:09;;;;;;;3.80;3.33;;;-6.30;99.90;-7.80;97503.00;;;;5084574;28;20213;-67
2021/03/07 06:10:57;;;;;;;3.38;2.42;;;-6.20;99.90;-7.80;97505.00;;;;5083183;28;20219;-67
2021/03/07 06:13:44;;;;;;;1.70;1.60;;;-6.00;99.90;-7.90;97492.00;;;;5075927;28;20207;-67
2021/03/07 06:16:32;;;;;;;3.50;3.20;;;-6.10;99.90;-7.80;97500.00;;;;5081426;28;20216;-67
2021/03/07 06:19:20;;;;;;;4.43;2.97;;;-6.10;99.90;-7.50;97513.00;;;;5081164;28;20221;-68
2021/03/07 06:22:14;;;;;;;4.65;2.72;;;-6.00;99.90;-7.10;97505.00;;;;5073367;28;20703;-67
2021/03/07 06:25:06;;;;;;;3.65;2.63;;;-5.80;99.90;-6.90;97514.00;;;;5074784;28;20705;-67
2021/03/07 06:27:57;;;;;;;3.03;2.75;;;-5.60;99.90;-6.90;97504.00;;;;5084634;28;20227;-68
2021/03/07 06:30:45;;;;;;;9.55;2.42;;;-5.50;99.90;-6.80;97512.00;;;;5082889;28;20271;-67
2021/03/07 06:33:35;;;;;;;3.20;2.15;;;-5.30;99.90;-6.70;97512.00;;;;5079997;28;20215;-67
2021/03/07 06:36:25;;;;;;;5.07;2.72;;;-5.20;99.90;-6.50;97515.00;;;;5083684;28;20227;-67
2021/03/07 06:39:14;;;;;;;2.63;2.42;;;-5.10;99.90;-6.50;97515.00;;;;5067291;28;20209;-68
2021/03/07 06:42:04;;;;;;;2.60;2.42;;;-4.90;99.90;-6.50;97514.00;;;;5076237;28;20219;-67
2021/03/07 06:44:58;;;;;;;2.65;2.45;;;-4.90;99.90;-6.40;97519.00;;;;5082169;28;20203;-68
2021/03/07 06:47:56;;;;;;;4.00;2.85;;;-4.80;99.90;-6.50;97517.00;;;;5084814;28;20231;-68
2021/03/07 06:50:53;;;;;;;12.95;6.38;;;-4.80;99.90;-6.70;97514.00;;;;5072762;28;20227;-67
2021/03/07 06:53:41;;;;;;;40.15;16.00;;;-4.80;99.90;-6.70;97499.00;;;;5075528;28;20208;-68
2021/03/07 06:56:47;;;;;;;20.33;8.32;;;-4.90;99.90;-6.60;97515.00;;;;5072490;28;20227;-67
2021/03/07 06:59:35;;;;;;;20.70;8.50;;;-4.90;99.90;-6.30;97504.00;;;;5084321;28;20890;-68
2021/03/07 07:02:23;;;;;;;12.65;7.60;;;-4.90;99.90;-6.10;97505.00;;;;5082040;28;20199;-68
2021/03/07 07:05:35;;;;;;;9.80;4.90;;;-4.70;99.90;-5.80;97509.00;;;;5078748;28;20698;-67
2021/03/07 07:08:47;;;;;;;3.70;3.40;;;-4.60;99.90;-5.60;97510.00;;;;5080153;28;20293;-68
2021/03/07 07:11:43;;;;;;;4.78;4.18;;;-4.30;99.90;-5.50;97502.00;;;;5085588;28;21268;-68
2021/03/07 07:14:38;;;;;;;3.63;2.90;;;-4.20;99.90;-5.40;97500.00;;;;5085956;28;20218;-68
2021/03/07 07:17:26;;;;;;;10.68;2.30;;;-4.10;99.90;-5.10;97512.00;;;;5075916;28;20228;-68
2021/03/07 07:20:14;;;;;;;7.23;3.00;;;-3.90;99.90;-4.80;97504.00;;;;5081972;28;20207;-67
2021/03/07 07:23:02;;;;;;;2.83;2.63;;;-3.70;99.90;-4.90;97503.00;;;;5070883;28;20446;-67
2021/03/07 07:25:50;;;;;;;4.40;3.53;;;-3.50;99.90;-5.00;97492.00;;;;5080599;28;20430;-66
2021/03/07 07:28:39;;;;;;;8.60;4.10;;;-3.50;99.90;-4.90;97486.00;;;;5072117;28;20445;-68
2021/03/07 07:31:41;;;;;;;4.20;3.87;;;-3.40;99.90;-4.70;97491.00;;;;5083796;28;20474;-68
2021/03/07 07:34:34;;;;;;;6.73;6.03;;;-3.30;99.90;-4.30;97491.00;;;;5085314;28;20425;-66
2021/03/07 07:37:27;;;;;;;4.10;2.23;;;-3.20;99.90;-4.00;97498.00;;;;5084385;28;20453;-68
2021/03/07 07:40:15;;;;;;;5.87;5.27;;;-2.90;99.90;-3.70;97488.00;;;;5072542;28;20444;-67
2021/03/07 07:43:04;;;;;;;3.57;3.00;;;-2.70;99.90;-3.50;97490.00;;;;5084950;28;20460;-67
2021/03/07 07:46:13;;;;;;;9.53;3.73;;;-2.50;99.90;-3.10;97482.00;;;;5084030;28;20529;-67
2021/03/07 07:49:02;;;;;;;4.30;3.80;;;-2.20;99.90;-2.90;97484.00;;;;5081694;28;20433;-66
2021/03/07 07:51:50;;;;;;;4.57;3.33;;;-1.90;99.90;-2.60;97469.00;;;;5087242;28;20862;-67
2021/03/07 07:54:54;;;;;;;4.73;3.97;;;-1.60;99.90;-2.40;97474.00;;;;5088177;28;20430;-67
2021/03/07 07:57:51;;;;;;;5.10;3.33;;;-1.40;99.90;-2.50;97470.00;;;;5087932;28;20479;-66
2021/03/07 08:00:51;;;;;;;5.63;3.67;;;-1.20;98.80;-2.00;97472.00;;;;5087276;28;20449;-64
2021/03/07 08:03:41;;;;;;;5.30;4.60;;;-1.10;98.40;-1.80;97460.00;;;;5084727;28;20976;-67
2021/03/07 08:06:47;;;;;;;6.50;3.20;;;-0.90;97.70;-1.80;97463.00;;;;5088490;28;20449;-67
2021/03/07 08:09:42;;;;;;;5.13;3.50;;;-0.70;95.10;-1.60;97463.00;;;;5077586;28;20951;-67
2021/03/07 08:12:52;;;;;;;4.60;3.70;;;-0.50;94.10;-1.10;97473.00;;;;5075812;28;20432;-68
2021/03/07 08:15:49;;;;;;;6.13;3.77;;;-0.30;93.50;-0.60;97464.00;;;;5086279;28;20429;-67
2021/03/07 08:18:50;;;;;;;5.93;4.20;;;0.00;92.50;-0.40;97455.00;;;;5086832;28;20503;-68
2021/03/07 08:22:03;;;;;;;4.83;3.43;;;0.30;91.50;-0.10;97456.00;;;;5086283;28;20436;-67
2021/03/07 08:24:57;;;;;;;4.57;3.40;;;0.70;89.80;0.20;97459.00;;;;5082565;28;20452;-68
2021/03/07 08:27:45;;;;;;;6.57;4.10;;;0.90;88.30;0.50;97451.00;;;;5082638;28;20471;-68
2021/03/07 08:30:38;;;;;;;6.80;3.47;;;1.20;86.20;0.70;97453.00;;;;5082916;28;20834;-69
2021/03/07 08:33:27;;;;;;;3.47;3.17;;;1.50;81.50;0.90;97443.00;;;;5088909;28;20811;-67
2021/03/07 08:36:18;;;;;;;11.10;3.93;;;1.70;78.80;1.00;97434.00;;;;5087436;28;20472;-67
2021/03/07 08:39:17;;;;;;;6.30;3.67;;;1.90;77.00;1.20;97436.00;;;;5085088;28;20823;-68
2021/03/07 08:42:05;;;;;;;5.10;3.50;;;2.10;75.10;1.40;97435.00;;;;5077535;28;20441;-68
2021/03/07 08:45:18;;;;;;;7.03;4.00;;;2.20;73.80;1.70;97432.00;;;;5087203;28;20440;-68
2021/03/07 08:48:07;;;;;;;5.27;3.33;;;2.40;72.90;1.80;97432.00;;;;5086006;28;20426;-68
2021/03/07 08:50:56;;;;;;;3.83;3.30;;;2.60;71.50;2.00;97425.00;;;;5082871;28;21022;-68
2021/03/07 08:53:46;;;;;;;5.97;3.73;;;3.90;72.40;2.20;97429.00;;;;5085812;28;20475;-68
2021/03/07 08:56:36;;;;;;;4.83;3.23;;;3.00;70.30;2.40;97421.00;;;;5086206;28;20450;-67
2021/03/07 08:59:28;;;;;;;5.10;3.77;;;3.20;69.90;2.70;97428.00;;;;5085057;28;20593;-68
2021/03/07 09:02:16;;;;;;;5.73;4.00;;;3.40;69.70;2.90;97424.00;;;;5085879;28;20430;-68
2021/03/07 09:05:07;;;;;;;6.13;3.50;;;3.60;68.40;3.10;97424.00;;;;5086446;28;20433;-68
2021/03/07 09:08:00;;;;;;;4.07;3.40;;;3.80;66.30;3.10;97414.00;;;;5085248;28;20449;-68
2021/03/07 09:10:52;;;;;;;6.30;3.43;;;4.00;62.70;3.30;97416.00;;;;5086062;28;20468;-69
2021/03/07 09:13:51;;;;;;;7.10;4.13;;;4.10;61.20;3.50;97410.00;;;;5087699;28;20437;-66
2021/03/07 09:16:42;;;;;;;5.70;4.30;;;4.30;61.40;3.60;97407.00;;;;5085360;28;20449;-66
2021/03/07 09:19:34;;;;;;;6.93;3.63;;;4.40;59.90;3.80;97393.00;;;;5082009;28;20441;-67
2021/03/07 09:22:24;;;;;;;3.33;2.73;;;4.50;60.10;4.10;97387.00;;;;5068048;28;20963;-62
2021/03/07 09:25:16;;;;;;;5.10;3.37;;;4.70;60.40;4.20;97392.00;;;;5085935;28;20434;-69
2021/03/07 09:28:04;;;;;;;4.63;2.70;;;4.90;59.20;4.10;97381.00;;;;5086073;28;20444;-69
2021/03/07 09:30:56;;;;;;;4.43;3.17;;;5.00;56.90;4.40;97375.00;;;;5080625;28;20462;-68
2021/03/07 09:33:48;;;;;;;7.97;5.27;;;5.10;55.10;4.80;97371.00;;;;5077113;28;20422;-70
2021/03/07 09:36:39;;;;;;;5.60;4.47;;;5.30;55.30;4.80;97372.00;;;;5084468;28;20445;-67
2021/03/07 09:39:28;;;;;;;3.37;2.53;;;5.50;55.10;4.90;97369.00;;;;5083845;28;20444;-70
2021/03/07 09:42:16;;;;;;;8.13;3.17;;;5.60;54.10;5.30;97364.00;;;;5085415;28;20438;-70
2021/03/07 09:45:06;;;;;;;5.63;2.47;;;5.80;55.20;5.10;97359.00;;;;5085840;28;20199;-70
2021/03/07 09:47:56;;;;;;;3.43;2.33;;;5.90;53.40;5.20;97354.00;;;;5085539;28;20458;-70
2021/03/07 09:50:45;;;;;;;4.10;2.63;;;6.10;52.50;4.90;97348.00;;;;5080458;28;20484;-70
2021/03/07 09:53:37;;;;;;;5.33;2.63;;;6.20;52.30;5.20;97342.00;;;;5085236;28;20614;-70
2021/03/07 09:56:28;;;;;;;3.90;2.23;;;6.20;52.00;5.80;97346.00;;;;5085958;28;20249;-70
2021/03/07 09:59:18;;;;;;;3.23;2.20;;;6.30;52.70;6.00;97346.00;;;;5084734;28;20433;-70
2021/03/07 10:02:07;;;;;;;3.53;2.07;;;6.50;52.10;6.00;97350.00;;;;5085284;28;20218;-70
2021/03/07 10:04:56;;;;;;;2.17;2.03;;;6.70;51.50;6.30;97343.00;;;;5084827;28;20203;-70
2021/03/07 10:07:44;;;;;;;2.30;1.77;;;6.80;50.70;6.50;97341.00;;;;5084639;28;20219;-69
2021/03/07 10:10:32;;;;;;;2.50;2.30;;;7.00;50.30;6.40;97338.00;;;;5084532;28;20212;-69
2021/03/07 10:13:19;;;;;;;2.87;2.20;;;7.20;49.80;6.50;97333.00;;;;5086357;28;20199;-69
2021/03/07 10:16:22;;;;;;;4.93;2.30;;;7.30;49.70;7.00;97332.00;;;;5084943;28;20230;-69
2021/03/07 10:19:14;;;;;;;6.40;4.03;;;7.50;49.40;7.40;97332.00;;;;5077992;28;20195;-69
2021/03/07 10:22:05;;;;;;;13.27;3.47;;;7.70;50.20;7.80;97329.00;;;;5085375;28;20587;-69
2021/03/07 10:24:53;;;;;;;3.03;2.63;;;7.90;50.80;7.70;97321.00;;;;5084348;28;20234;-69
2021/03/07 10:27:41;;;;;;;2.77;2.53;;;8.20;49.50;7.60;97317.00;;;;5084154;28;20227;-70
2021/03/07 10:30:36;;;;;;;3.23;2.87;;;8.30;48.40;8.00;97314.00;;;;5084348;28;20202;-70
2021/03/07 10:33:27;;;;;;;7.00;3.60;;;8.50;49.10;8.30;97308.00;;;;5076138;28;20690;-70
2021/03/07 10:36:19;;;;;;;4.83;3.40;;;8.60;49.30;8.40;97309.00;;;;5076218;28;20886;-69
2021/03/07 10:39:14;;;;;;;4.03;2.53;;;8.70;47.20;8.40;97309.00;;;;5079425;28;20215;-69
2021/03/07 10:42:07;;;;;;;4.23;2.53;;;8.80;46.90;7.80;97290.00;;;;5073454;28;20227;-69
2021/03/07 10:44:55;;;;;;;3.43;2.50;;;8.90;47.00;6.90;97279.00;;;;5084651;28;20697;-69
2021/03/07 10:47:43;;;;;;;3.47;2.53;;;8.70;45.30;8.10;97277.00;;;;5080150;28;20231;-69
2021/03/07 10:50:32;;;;;;;4.30;3.00;;;8.80;45.40;8.60;97283.00;;;;5072843;28;20232;-69
2021/03/07 10:53:20;;;;;;;5.33;3.00;;;9.20;45.80;9.50;97280.00;;;;5084495;28;20670;-70
2021/03/07 10:56:09;;;;;;;3.93;3.20;;;9.60;46.10;10.20;97275.00;;;;5067422;28;20242;-70
2021/03/07 10:58:57;;;;;;;3.20;2.33;;;10.30;46.60;10.40;97278.00;;;;5079176;28;20211;-71
2021/03/07 11:01:45;;;;;;;3.97;2.63;;;10.90;43.90;11.20;97264.00;;;;5081984;28;20238;-70
2021/03/07 11:04:33;;;;;;;2.90;2.60;;;11.30;44.40;11.70;97259.00;;;;5074211;28;20260;-70
2021/03/07 11:07:21;;;;;;;3.43;2.27;;;11.90;43.80;11.50;97242.00;;;;5079720;28;20219;-70
2021/03/07 11:10:12;;;;;;;3.43;2.83;;;12.40;41.70;12.10;97242.00;;;;5078368;28;20687;-70
2021/03/07 11:13:00;;;;;;;3.60;2.80;;;12.70;41.80;12.50;97236.00;;;;5074867;28;20665;-70
2021/03/07 11:15:48;;;;;;;3.60;2.73;;;13.00;40.70;13.10;97238.00;;;;5067903;28;20203;-71
2021/03/07 11:18:37;;;;;;;2.57;2.33;;;13.60;40.40;12.80;97216.00;;;;5087257;28;20207;-70
2021/03/07 11:21:25;;;;;;;3.17;2.77;;;13.70;39.50;12.90;97228.00;;;;5084719;28;20211;-73
2021/03/07 11:24:15;;;;;;;3.27;2.53;;;13.90;39.60;12.40;97213.00;;;;5079262;28;20314;-73
2021/03/07 11:27:04;;;;;;;2.17;1.83;;;13.90;39.10;13.40;97198.00;;;;5087672;28;20227;-74
2021/03/07 11:29:53;;;;;;;3.40;2.73;;;14.30;40.40;13.00;97195.00;;;;5086343;28;20203;-73
2021/03/07 11:32:41;;;;;;;3.23;2.93;;;14.20;39.50;13.10;97179.00;;;;5077898;28;20764;-73
2021/03/07 11:35:29;;;;;;;3.77;2.67;;;14.50;39.40;13.70;97170.00;;;;5076016;28;20204;-73
2021/03/07 11:38:17;;;;;;;4.20;2.70;;;14.80;38.40;13.50;97175.00;;;;5073420;28;20214;-73
2021/03/07 11:41:05;;;;;;;4.57;3.47;;;14.70;39.50;14.00;97154.00;;;;5078471;28;20241;-73
2021/03/07 11:43:53;;;;;;;3.17;2.93;;;14.90;39.90;14.30;97157.00;;;;5087241;28;20226;-73
2021/03/07 11:46:43;;;;;;;7.17;3.33;;;14.90;39.80;14.10;97156.00;;;;5086795;28;20702;-73
2021/03/07 11:49:31;;;;;;;3.60;2.73;;;14.90;39.00;13.00;97140.00;;;;5085271;28;20211;-72
2021/03/07 11:52:19;;;;;;;4.27;3.43;;;15.10;38.80;11.40;97124.00;;;;5074325;28;20207;-72
2021/03/07 11:55:09;;;;;;;4.37;3.57;;;14.60;37.50;12.00;97121.00;;;;5086923;28;20214;-71
2021/03/07 11:57:56;;;;;;;4.03;3.40;;;14.30;39.10;13.30;97125.00;;;;5085873;28;20566;-72
2021/03/07 12:00:44;;;;;;;3.73;3.17;;;14.10;40.50;13.40;97114.00;;;;5075065;28;20199;-72
2021/03/07 12:03:36;;;;;;;3.53;3.27;;;14.20;40.30;13.30;97107.00;;;;5082606;28;20683;-72
2021/03/07 12:06:24;;;;;;;5.10;3.37;;;14.60;39.10;13.80;97106.00;;;;5082750;28;20235;-70
2021/03/07 12:09:11;;;;;;;5.97;3.20;;;14.70;39.00;14.00;97105.00;;;;5086131;28;20200;-71
2021/03/07 12:11:59;;;;;;;5.73;3.30;;;14.70;39.30;14.30;97099.00;;;;5087782;28;20210;-71
2021/03/07 12:14:47;;;;;;;4.83;3.30;;;14.80;39.10;14.90;97098.00;;;;5086574;28;20675;-71
2021/03/07 12:17:35;;;;;;;7.90;4.60;;;15.10;38.80;14.70;97096.00;;;;5086517;28;20219;-71
2021/03/07 12:20:25;;;;;;;13.13;7.77;;;15.20;38.70;14.90;97085.00;;;;5086109;28;20689;-71
2021/03/07 12:23:13;;;;;;;11.87;7.03;;;15.40;38.80;15.90;97084.00;;;;5086915;28;20794;-71
2021/03/07 12:26:01;;;;;;;14.27;7.10;;;15.80;39.80;15.60;97072.00;;;;5086266;28;20623;-71
2021/03/07 12:28:48;;;;;;;6.87;5.40;;;16.20;38.40;15.60;97076.00;;;;5085230;28;20222;-71
2021/03/07 12:31:36;;;;;;;8.57;5.03;;;16.30;38.20;16.10;97061.00;;;;5086521;28;20198;-72
2021/03/07 12:34:24;;;;;;;10.30;5.27;;;16.40;38.50;15.70;97063.00;;;;5086134;28;20215;-71
2021/03/07 12:37:13;;;;;;;6.33;5.17;;;16.70;38.30;16.10;97054.00;;;;5085042;28;20211;-72
2021/03/07 12:40:01;;;;;;;6.07;5.27;;;16.50;38.70;15.40;97053.00;;;;5081619;28;20573;-75
2021/03/07 12:42:49;;;;;;;4.20;3.77;;;16.60;38.50;12.80;97039.00;;;;5085946;28;20848;-70
2021/03/07 12:45:36;;;;;;;5.90;3.93;;;15.70;38.50;13.90;97042.00;;;;5088668;28;20210;-70